sensor_id;sensor_type;location;lat;lon;timestamp;P1;durP1;ratioP1;P2;durP2;ratioP2
13868;SDS011;7004;48.206;16.402;2024-03-22T00:01:48;12.10;;;10.03;;
13868;SDS011;7004;48.206;16.402;2024-03-22T00:04:16;10.10;;;9.10;;
13868;SDS011;7004;48.206;16.402;2024-03-22T00:06:45;11.70;;;10.47;;
13868;SDS011;7004;48.206;16.402;2024-03-22T00:09:14;11.17;;;10.07;;
13868;SDS011;7004;48.206;16.402;2024-03-22T00:11:42;11.57;;;9.97;;
13868;SDS011;7004;48.206;16.402;2024-03-22T00:14:09;11.03;;;9.73;;
13868;SDS011;7004;48.206;16.402;2024-03-22T00:16:37;12.33;;;9.97;;
13868;SDS011;7004;48.206;16.402;2024-03-22T00:19:03;11.73;;;10.53;;
13868;SDS011;7004;48.206;16.402;2024-03-22T00:21:29;11.67;;;10.47;;
13868;SDS011;7004;48.206;16.402;2024-03-22T00:23:57;10.53;;;9.53;;
13868;SDS011;7004;48.206;16.402;2024-03-22T00:26:23;11.83;;;9.27;;
13868;SDS011;7004;48.206;16.402;2024-03-22T00:28:49;11.93;;;10.73;;
13868;SDS011;7004;48.206;16.402;2024-03-22T00:31:16;10.67;;;9.60;;
13868;SDS011;7004;48.206;16.402;2024-03-22T00:33:44;12.30;;;10.30;;
13868;SDS011;7004;48.206;16.402;2024-03-22T00:36:10;12.67;;;11.33;;
13868;SDS011;7004;48.206;16.402;2024-03-22T00:38:36;12.13;;;10.83;;
13868;SDS011;7004;48.206;16.402;2024-03-22T00:41:02;12.40;;;11.10;;
13868;SDS011;7004;48.206;16.402;2024-03-22T00:43:29;12.07;;;10.83;;
13868;SDS011;7004;48.206;16.402;2024-03-22T00:45:55;13.23;;;11.83;;
13868;SDS011;7004;48.206;16.402;2024-03-22T00:48:21;13.87;;;12.00;;
13868;SDS011;7004;48.206;16.402;2024-03-22T00:50:47;15.20;;;11.53;;
13868;SDS011;7004;48.206;16.402;2024-03-22T00:53:14;19.93;;;11.97;;
13868;SDS011;7004;48.206;16.402;2024-03-22T00:55:40;15.87;;;11.73;;
13868;SDS011;7004;48.206;16.402;2024-03-22T00:58:06;13.37;;;11.97;;
13868;SDS011;7004;48.206;16.402;2024-03-22T01:00:32;13.20;;;11.80;;
13868;SDS011;7004;48.206;16.402;2024-03-22T01:02:58;14.37;;;12.20;;
13868;SDS011;7004;48.206;16.402;2024-03-22T01:05:24;14.27;;;12.57;;
13868;SDS011;7004;48.206;16.402;2024-03-22T01:07:51;15.10;;;13.03;;
13868;SDS011;7004;48.206;16.402;2024-03-22T01:10:17;14.60;;;12.47;;
13868;SDS011;7004;48.206;16.402;2024-03-22T01:12:44;15.23;;;13.43;;
13868;SDS011;7004;48.206;16.402;2024-03-22T01:15:10;14.07;;;12.57;;
13868;SDS011;7004;48.206;16.402;2024-03-22T01:17:37;16.47;;;13.00;;
13868;SDS011;7004;48.206;16.402;2024-03-22T01:20:03;15.67;;;13.63;;
13868;SDS011;7004;48.206;16.402;2024-03-22T01:22:30;14.67;;;13.07;;
13868;SDS011;7004;48.206;16.402;2024-03-22T01:24:56;16.07;;;13.10;;
13868;SDS011;7004;48.206;16.402;2024-03-22T01:27:22;14.80;;;12.83;;
13868;SDS011;7004;48.206;16.402;2024-03-22T01:29:48;17.17;;;13.60;;
13868;SDS011;7004;48.206;16.402;2024-03-22T01:32:14;15.50;;;13.57;;
13868;SDS011;7004;48.206;16.402;2024-03-22T01:34:40;15.50;;;13.63;;
13868;SDS011;7004;48.206;16.402;2024-03-22T01:37:07;14.97;;;13.37;;
13868;SDS011;7004;48.206;16.402;2024-03-22T01:39:33;16.50;;;14.10;;
13868;SDS011;7004;48.206;16.402;2024-03-22T01:41:59;18.10;;;14.57;;
13868;SDS011;7004;48.206;16.402;2024-03-22T01:44:28;17.90;;;14.37;;
13868;SDS011;7004;48.206;16.402;2024-03-22T01:46:56;15.77;;;13.37;;
13868;SDS011;7004;48.206;16.402;2024-03-22T01:49:22;16.50;;;13.90;;
13868;SDS011;7004;48.206;16.402;2024-03-22T01:51:51;17.17;;;15.00;;
13868;SDS011;7004;48.206;16.402;2024-03-22T01:54:19;19.33;;;14.27;;
13868;SDS011;7004;48.206;16.402;2024-03-22T01:56:47;16.33;;;14.63;;
13868;SDS011;7004;48.206;16.402;2024-03-22T01:59:13;17.70;;;15.07;;
13868;SDS011;7004;48.206;16.402;2024-03-22T02:01:40;15.93;;;14.23;;
13868;SDS011;7004;48.206;16.402;2024-03-22T02:04:07;18.40;;;14.87;;
13868;SDS011;7004;48.206;16.402;2024-03-22T02:06:33;17.23;;;15.30;;
13868;SDS011;7004;48.206;16.402;2024-03-22T02:09:00;17.23;;;14.63;;
13868;SDS011;7004;48.206;16.402;2024-03-22T02:11:26;16.53;;;14.73;;
13868;SDS011;7004;48.206;16.402;2024-03-22T02:13:53;18.10;;;15.90;;
13868;SDS011;7004;48.206;16.402;2024-03-22T02:16:19;17.73;;;15.17;;
13868;SDS011;7004;48.206;16.402;2024-03-22T02:18:45;19.17;;;15.87;;
13868;SDS011;7004;48.206;16.402;2024-03-22T02:21:11;19.17;;;15.63;;
13868;SDS011;7004;48.206;16.402;2024-03-22T02:23:38;19.70;;;15.80;;
13868;SDS011;7004;48.206;16.402;2024-03-22T02:26:05;21.20;;;16.00;;
13868;SDS011;7004;48.206;16.402;2024-03-22T02:28:33;20.17;;;16.00;;
13868;SDS011;7004;48.206;16.402;2024-03-22T02:31:02;18.87;;;16.03;;
13868;SDS011;7004;48.206;16.402;2024-03-22T02:33:29;17.77;;;15.50;;
13868;SDS011;7004;48.206;16.402;2024-03-22T02:35:55;19.80;;;16.10;;
13868;SDS011;7004;48.206;16.402;2024-03-22T02:38:22;18.27;;;15.93;;
13868;SDS011;7004;48.206;16.402;2024-03-22T02:40:49;18.73;;;16.63;;
13868;SDS011;7004;48.206;16.402;2024-03-22T02:43:17;19.47;;;16.27;;
13868;SDS011;7004;48.206;16.402;2024-03-22T02:45:44;20.27;;;17.27;;
13868;SDS011;7004;48.206;16.402;2024-03-22T02:48:12;18.67;;;15.87;;
13868;SDS011;7004;48.206;16.402;2024-03-22T02:50:39;24.83;;;17.00;;
13868;SDS011;7004;48.206;16.402;2024-03-22T02:53:06;20.87;;;16.67;;
13868;SDS011;7004;48.206;16.402;2024-03-22T02:55:37;18.40;;;16.23;;
13868;SDS011;7004;48.206;16.402;2024-03-22T02:58:05;17.90;;;16.00;;
13868;SDS011;7004;48.206;16.402;2024-03-22T03:00:36;18.63;;;16.63;;
13868;SDS011;7004;48.206;16.402;2024-03-22T03:03:04;18.17;;;15.90;;
13868;SDS011;7004;48.206;16.402;2024-03-22T03:05:33;19.57;;;16.23;;
13868;SDS011;7004;48.206;16.402;2024-03-22T03:08:00;18.33;;;16.40;;
13868;SDS011;7004;48.206;16.402;2024-03-22T03:10:26;19.70;;;16.27;;
13868;SDS011;7004;48.206;16.402;2024-03-22T03:12:56;20.33;;;16.63;;
13868;SDS011;7004;48.206;16.402;2024-03-22T03:15:22;20.43;;;15.27;;
13868;SDS011;7004;48.206;16.402;2024-03-22T03:17:50;17.80;;;15.83;;
13868;SDS011;7004;48.206;16.402;2024-03-22T03:20:17;21.13;;;16.57;;
13868;SDS011;7004;48.206;16.402;2024-03-22T03:22:44;21.43;;;16.43;;
13868;SDS011;7004;48.206;16.402;2024-03-22T03:25:13;18.77;;;16.33;;
13868;SDS011;7004;48.206;16.402;2024-03-22T03:27:40;18.10;;;15.20;;
13868;SDS011;7004;48.206;16.402;2024-03-22T03:30:07;19.13;;;16.40;;
13868;SDS011;7004;48.206;16.402;2024-03-22T03:32:38;19.00;;;16.17;;
13868;SDS011;7004;48.206;16.402;2024-03-22T03:35:07;21.83;;;17.50;;
13868;SDS011;7004;48.206;16.402;2024-03-22T03:37:33;17.77;;;15.30;;
13868;SDS011;7004;48.206;16.402;2024-03-22T03:39:59;18.47;;;15.97;;
13868;SDS011;7004;48.206;16.402;2024-03-22T03:42:25;26.27;;;16.43;;
13868;SDS011;7004;48.206;16.402;2024-03-22T03:44:52;21.43;;;16.00;;
13868;SDS011;7004;48.206;16.402;2024-03-22T03:47:19;22.77;;;17.17;;
13868;SDS011;7004;48.206;16.402;2024-03-22T03:49:45;21.50;;;16.23;;
13868;SDS011;7004;48.206;16.402;2024-03-22T03:52:12;21.63;;;17.00;;
13868;SDS011;7004;48.206;16.402;2024-03-22T03:54:38;17.90;;;16.00;;
13868;SDS011;7004;48.206;16.402;2024-03-22T03:57:04;20.10;;;16.83;;
13868;SDS011;7004;48.206;16.402;2024-03-22T03:59:31;19.87;;;16.83;;
13868;SDS011;7004;48.206;16.402;2024-03-22T04:01:57;23.80;;;17.73;;
13868;SDS011;7004;48.206;16.402;2024-03-22T04:04:24;20.00;;;16.00;;
13868;SDS011;7004;48.206;16.402;2024-03-22T04:06:57;19.07;;;16.10;;
13868;SDS011;7004;48.206;16.402;2024-03-22T04:09:25;21.13;;;16.07;;
13868;SDS011;7004;48.206;16.402;2024-03-22T04:11:51;20.13;;;16.33;;
13868;SDS011;7004;48.206;16.402;2024-03-22T04:14:25;21.53;;;16.87;;
13868;SDS011;7004;48.206;16.402;2024-03-22T04:16:57;19.00;;;16.37;;
13868;SDS011;7004;48.206;16.402;2024-03-22T04:19:25;20.77;;;16.47;;
13868;SDS011;7004;48.206;16.402;2024-03-22T04:22:00;18.87;;;16.00;;
13868;SDS011;7004;48.206;16.402;2024-03-22T04:24:34;20.33;;;16.20;;
13868;SDS011;7004;48.206;16.402;2024-03-22T04:27:07;20.00;;;15.87;;
13868;SDS011;7004;48.206;16.402;2024-03-22T04:29:36;19.27;;;15.73;;
13868;SDS011;7004;48.206;16.402;2024-03-22T04:32:18;19.13;;;15.70;;
13868;SDS011;7004;48.206;16.402;2024-03-22T04:34:45;18.50;;;15.73;;
13868;SDS011;7004;48.206;16.402;2024-03-22T04:37:12;19.60;;;16.53;;
13868;SDS011;7004;48.206;16.402;2024-03-22T04:39:39;20.73;;;16.23;;
13868;SDS011;7004;48.206;16.402;2024-03-22T04:42:06;19.37;;;16.07;;
13868;SDS011;7004;48.206;16.402;2024-03-22T04:44:33;19.77;;;14.97;;
13868;SDS011;7004;48.206;16.402;2024-03-22T04:46:59;19.70;;;15.97;;
13868;SDS011;7004;48.206;16.402;2024-03-22T04:49:25;19.30;;;16.23;;
13868;SDS011;7004;48.206;16.402;2024-03-22T04:51:52;22.23;;;15.77;;
13868;SDS011;7004;48.206;16.402;2024-03-22T04:54:19;18.73;;;16.37;;
13868;SDS011;7004;48.206;16.402;2024-03-22T04:56:45;20.00;;;16.50;;
13868;SDS011;7004;48.206;16.402;2024-03-22T04:59:12;19.70;;;15.77;;
13868;SDS011;7004;48.206;16.402;2024-03-22T05:01:38;20.20;;;15.70;;
13868;SDS011;7004;48.206;16.402;2024-03-22T05:04:14;18.53;;;16.37;;
13868;SDS011;7004;48.206;16.402;2024-03-22T05:06:41;24.70;;;16.57;;
13868;SDS011;7004;48.206;16.402;2024-03-22T05:09:08;19.50;;;15.87;;
13868;SDS011;7004;48.206;16.402;2024-03-22T05:11:36;19.80;;;16.50;;
13868;SDS011;7004;48.206;16.402;2024-03-22T05:14:02;16.80;;;15.00;;
13868;SDS011;7004;48.206;16.402;2024-03-22T05:16:28;18.37;;;15.33;;
13868;SDS011;7004;48.206;16.402;2024-03-22T05:18:55;20.20;;;15.90;;
13868;SDS011;7004;48.206;16.402;2024-03-22T05:21:21;23.03;;;16.57;;
13868;SDS011;7004;48.206;16.402;2024-03-22T05:23:48;19.03;;;15.67;;
13868;SDS011;7004;48.206;16.402;2024-03-22T05:26:14;19.53;;;15.57;;
13868;SDS011;7004;48.206;16.402;2024-03-22T05:28:40;19.57;;;15.63;;
13868;SDS011;7004;48.206;16.402;2024-03-22T05:31:07;21.70;;;16.13;;
13868;SDS011;7004;48.206;16.402;2024-03-22T05:33:33;16.93;;;14.03;;
13868;SDS011;7004;48.206;16.402;2024-03-22T05:36:00;17.10;;;14.03;;
13868;SDS011;7004;48.206;16.402;2024-03-22T05:38:26;17.77;;;14.47;;
13868;SDS011;7004;48.206;16.402;2024-03-22T05:40:52;21.03;;;14.53;;
13868;SDS011;7004;48.206;16.402;2024-03-22T05:43:18;17.10;;;14.57;;
13868;SDS011;7004;48.206;16.402;2024-03-22T05:45:44;20.63;;;14.63;;
13868;SDS011;7004;48.206;16.402;2024-03-22T05:48:10;17.23;;;14.03;;
13868;SDS011;7004;48.206;16.402;2024-03-22T05:50:37;16.67;;;13.80;;
13868;SDS011;7004;48.206;16.402;2024-03-22T05:53:04;17.23;;;13.50;;
13868;SDS011;7004;48.206;16.402;2024-03-22T05:55:30;17.40;;;14.10;;
13868;SDS011;7004;48.206;16.402;2024-03-22T05:57:57;18.27;;;14.57;;
13868;SDS011;7004;48.206;16.402;2024-03-22T06:00:23;19.03;;;14.43;;
13868;SDS011;7004;48.206;16.402;2024-03-22T06:02:51;18.17;;;13.97;;
13868;SDS011;7004;48.206;16.402;2024-03-22T06:05:17;19.53;;;14.60;;
13868;SDS011;7004;48.206;16.402;2024-03-22T06:07:43;18.47;;;15.73;;
13868;SDS011;7004;48.206;16.402;2024-03-22T06:10:11;20.43;;;15.70;;
13868;SDS011;7004;48.206;16.402;2024-03-22T06:12:37;19.80;;;16.23;;
13868;SDS011;7004;48.206;16.402;2024-03-22T06:15:03;22.23;;;17.67;;
13868;SDS011;7004;48.206;16.402;2024-03-22T06:17:32;25.50;;;17.93;;
13868;SDS011;7004;48.206;16.402;2024-03-22T06:19:59;24.07;;;19.20;;
13868;SDS011;7004;48.206;16.402;2024-03-22T06:22:26;23.80;;;19.03;;
13868;SDS011;7004;48.206;16.402;2024-03-22T06:24:52;34.27;;;25.33;;
13868;SDS011;7004;48.206;16.402;2024-03-22T06:27:19;45.13;;;34.83;;
13868;SDS011;7004;48.206;16.402;2024-03-22T06:29:45;31.43;;;22.67;;
13868;SDS011;7004;48.206;16.402;2024-03-22T06:32:12;31.40;;;23.27;;
13868;SDS011;7004;48.206;16.402;2024-03-22T06:34:38;28.40;;;20.73;;
13868;SDS011;7004;48.206;16.402;2024-03-22T06:37:04;29.73;;;26.43;;
13868;SDS011;7004;48.206;16.402;2024-03-22T06:39:31;26.73;;;21.07;;
13868;SDS011;7004;48.206;16.402;2024-03-22T06:41:57;24.70;;;18.20;;
13868;SDS011;7004;48.206;16.402;2024-03-22T06:44:23;28.93;;;20.80;;
13868;SDS011;7004;48.206;16.402;2024-03-22T06:46:49;23.63;;;18.93;;
13868;SDS011;7004;48.206;16.402;2024-03-22T06:49:15;26.03;;;18.93;;
13868;SDS011;7004;48.206;16.402;2024-03-22T06:51:42;23.73;;;19.10;;
13868;SDS011;7004;48.206;16.402;2024-03-22T06:54:08;25.57;;;18.23;;
13868;SDS011;7004;48.206;16.402;2024-03-22T06:56:35;27.90;;;20.23;;
13868;SDS011;7004;48.206;16.402;2024-03-22T06:59:01;27.93;;;19.97;;
13868;SDS011;7004;48.206;16.402;2024-03-22T07:01:27;22.43;;;19.30;;
13868;SDS011;7004;48.206;16.402;2024-03-22T07:03:53;24.97;;;18.60;;
13868;SDS011;7004;48.206;16.402;2024-03-22T07:06:19;25.47;;;19.60;;
13868;SDS011;7004;48.206;16.402;2024-03-22T07:08:45;23.10;;;18.97;;
13868;SDS011;7004;48.206;16.402;2024-03-22T07:11:11;24.63;;;18.93;;
13868;SDS011;7004;48.206;16.402;2024-03-22T07:13:38;26.40;;;19.50;;
13868;SDS011;7004;48.206;16.402;2024-03-22T07:16:04;24.30;;;19.53;;
13868;SDS011;7004;48.206;16.402;2024-03-22T07:18:31;25.43;;;19.47;;
13868;SDS011;7004;48.206;16.402;2024-03-22T07:20:57;25.23;;;18.60;;
13868;SDS011;7004;48.206;16.402;2024-03-22T07:23:28;25.57;;;20.23;;
13868;SDS011;7004;48.206;16.402;2024-03-22T07:25:55;25.80;;;19.67;;
13868;SDS011;7004;48.206;16.402;2024-03-22T07:28:21;25.40;;;20.10;;
13868;SDS011;7004;48.206;16.402;2024-03-22T07:30:47;24.60;;;19.53;;
13868;SDS011;7004;48.206;16.402;2024-03-22T07:33:13;28.17;;;20.67;;
13868;SDS011;7004;48.206;16.402;2024-03-22T07:35:41;26.13;;;20.40;;
13868;SDS011;7004;48.206;16.402;2024-03-22T07:38:07;27.63;;;20.77;;
13868;SDS011;7004;48.206;16.402;2024-03-22T07:40:34;27.43;;;20.97;;
13868;SDS011;7004;48.206;16.402;2024-03-22T07:43:00;25.53;;;20.07;;
13868;SDS011;7004;48.206;16.402;2024-03-22T07:45:31;28.87;;;21.97;;
13868;SDS011;7004;48.206;16.402;2024-03-22T07:48:00;29.80;;;20.30;;
13868;SDS011;7004;48.206;16.402;2024-03-22T07:50:27;29.77;;;21.37;;
13868;SDS011;7004;48.206;16.402;2024-03-22T07:52:53;26.87;;;21.10;;
13868;SDS011;7004;48.206;16.402;2024-03-22T07:55:19;28.90;;;20.87;;
13868;SDS011;7004;48.206;16.402;2024-03-22T07:57:45;25.53;;;20.80;;
13868;SDS011;7004;48.206;16.402;2024-03-22T08:00:12;25.03;;;20.40;;
13868;SDS011;7004;48.206;16.402;2024-03-22T08:02:38;28.53;;;21.23;;
13868;SDS011;7004;48.206;16.402;2024-03-22T08:05:04;27.57;;;21.10;;
13868;SDS011;7004;48.206;16.402;2024-03-22T08:07:34;27.83;;;21.50;;
13868;SDS011;7004;48.206;16.402;2024-03-22T08:10:00;29.57;;;20.70;;
13868;SDS011;7004;48.206;16.402;2024-03-22T08:12:27;32.57;;;20.00;;
13868;SDS011;7004;48.206;16.402;2024-03-22T08:14:54;30.30;;;20.93;;
13868;SDS011;7004;48.206;16.402;2024-03-22T08:17:20;24.30;;;18.37;;
13868;SDS011;7004;48.206;16.402;2024-03-22T08:19:47;27.97;;;19.70;;
13868;SDS011;7004;48.206;16.402;2024-03-22T08:22:13;24.63;;;18.63;;
13868;SDS011;7004;48.206;16.402;2024-03-22T08:24:39;33.20;;;18.70;;
13868;SDS011;7004;48.206;16.402;2024-03-22T08:27:05;32.70;;;20.00;;
13868;SDS011;7004;48.206;16.402;2024-03-22T08:29:32;27.70;;;19.23;;
13868;SDS011;7004;48.206;16.402;2024-03-22T08:31:58;32.03;;;19.77;;
13868;SDS011;7004;48.206;16.402;2024-03-22T08:34:24;24.40;;;18.73;;
13868;SDS011;7004;48.206;16.402;2024-03-22T08:36:50;26.90;;;18.87;;
13868;SDS011;7004;48.206;16.402;2024-03-22T08:39:16;25.47;;;19.40;;
13868;SDS011;7004;48.206;16.402;2024-03-22T08:41:43;25.63;;;17.80;;
13868;SDS011;7004;48.206;16.402;2024-03-22T08:44:09;23.70;;;18.23;;
13868;SDS011;7004;48.206;16.402;2024-03-22T08:46:36;24.60;;;18.40;;
13868;SDS011;7004;48.206;16.402;2024-03-22T08:49:02;24.77;;;18.33;;
13868;SDS011;7004;48.206;16.402;2024-03-22T08:51:28;24.10;;;18.27;;
13868;SDS011;7004;48.206;16.402;2024-03-22T08:53:55;24.47;;;18.27;;
13868;SDS011;7004;48.206;16.402;2024-03-22T08:56:21;22.27;;;17.33;;
13868;SDS011;7004;48.206;16.402;2024-03-22T08:58:48;26.63;;;20.13;;
13868;SDS011;7004;48.206;16.402;2024-03-22T09:01:15;23.57;;;18.20;;
13868;SDS011;7004;48.206;16.402;2024-03-22T09:03:41;25.53;;;17.77;;
13868;SDS011;7004;48.206;16.402;2024-03-22T09:06:10;24.47;;;17.53;;
13868;SDS011;7004;48.206;16.402;2024-03-22T09:08:36;26.07;;;17.80;;
13868;SDS011;7004;48.206;16.402;2024-03-22T09:11:02;22.50;;;17.97;;
13868;SDS011;7004;48.206;16.402;2024-03-22T09:13:29;25.53;;;17.83;;
13868;SDS011;7004;48.206;16.402;2024-03-22T09:15:58;23.03;;;17.70;;
13868;SDS011;7004;48.206;16.402;2024-03-22T09:18:24;22.17;;;17.87;;
13868;SDS011;7004;48.206;16.402;2024-03-22T09:20:52;22.93;;;17.37;;
13868;SDS011;7004;48.206;16.402;2024-03-22T09:23:19;22.87;;;17.67;;
13868;SDS011;7004;48.206;16.402;2024-03-22T09:25:46;21.37;;;16.93;;
13868;SDS011;7004;48.206;16.402;2024-03-22T09:28:13;24.23;;;16.67;;
13868;SDS011;7004;48.206;16.402;2024-03-22T09:30:40;21.07;;;16.63;;
13868;SDS011;7004;48.206;16.402;2024-03-22T09:33:07;23.07;;;17.83;;
13868;SDS011;7004;48.206;16.402;2024-03-22T09:35:33;20.70;;;15.97;;
13868;SDS011;7004;48.206;16.402;2024-03-22T09:38:00;22.00;;;16.23;;
13868;SDS011;7004;48.206;16.402;2024-03-22T09:40:30;20.90;;;15.47;;
13868;SDS011;7004;48.206;16.402;2024-03-22T09:43:01;23.20;;;16.30;;
13868;SDS011;7004;48.206;16.402;2024-03-22T09:45:28;23.67;;;15.30;;
13868;SDS011;7004;48.206;16.402;2024-03-22T09:47:56;19.10;;;15.10;;
13868;SDS011;7004;48.206;16.402;2024-03-22T09:50:23;24.40;;;16.10;;
13868;SDS011;7004;48.206;16.402;2024-03-22T09:52:51;17.33;;;13.53;;
13868;SDS011;7004;48.206;16.402;2024-03-22T09:55:24;20.47;;;13.57;;
13868;SDS011;7004;48.206;16.402;2024-03-22T09:57:51;20.73;;;13.50;;
13868;SDS011;7004;48.206;16.402;2024-03-22T10:00:19;20.70;;;13.83;;
13868;SDS011;7004;48.206;16.402;2024-03-22T10:02:47;21.23;;;14.40;;
13868;SDS011;7004;48.206;16.402;2024-03-22T10:05:15;16.00;;;12.80;;
13868;SDS011;7004;48.206;16.402;2024-03-22T10:07:45;16.77;;;13.60;;
13868;SDS011;7004;48.206;16.402;2024-03-22T10:10:12;16.67;;;13.13;;
13868;SDS011;7004;48.206;16.402;2024-03-22T10:12:40;16.57;;;12.20;;
13868;SDS011;7004;48.206;16.402;2024-03-22T10:15:07;16.93;;;12.57;;
13868;SDS011;7004;48.206;16.402;2024-03-22T10:17:34;18.20;;;13.07;;
13868;SDS011;7004;48.206;16.402;2024-03-22T10:20:01;16.03;;;12.00;;
13868;SDS011;7004;48.206;16.402;2024-03-22T10:22:28;17.80;;;12.00;;
13868;SDS011;7004;48.206;16.402;2024-03-22T10:24:54;15.50;;;11.80;;
13868;SDS011;7004;48.206;16.402;2024-03-22T10:27:21;18.67;;;12.97;;
13868;SDS011;7004;48.206;16.402;2024-03-22T10:29:47;14.70;;;11.83;;
13868;SDS011;7004;48.206;16.402;2024-03-22T10:32:14;17.63;;;11.60;;
13868;SDS011;7004;48.206;16.402;2024-03-22T10:34:42;14.13;;;11.83;;
13868;SDS011;7004;48.206;16.402;2024-03-22T10:37:11;15.70;;;11.33;;
13868;SDS011;7004;48.206;16.402;2024-03-22T10:39:41;15.63;;;11.87;;
13868;SDS011;7004;48.206;16.402;2024-03-22T10:42:10;14.37;;;11.23;;
13868;SDS011;7004;48.206;16.402;2024-03-22T10:44:37;15.27;;;10.70;;
13868;SDS011;7004;48.206;16.402;2024-03-22T10:47:05;13.60;;;11.13;;
13868;SDS011;7004;48.206;16.402;2024-03-22T10:49:37;12.83;;;10.57;;
13868;SDS011;7004;48.206;16.402;2024-03-22T10:52:04;14.50;;;10.07;;
13868;SDS011;7004;48.206;16.402;2024-03-22T10:54:36;13.23;;;9.60;;
13868;SDS011;7004;48.206;16.402;2024-03-22T10:57:07;13.37;;;10.17;;
13868;SDS011;7004;48.206;16.402;2024-03-22T10:59:41;11.90;;;9.87;;
13868;SDS011;7004;48.206;16.402;2024-03-22T11:02:10;14.33;;;10.03;;
13868;SDS011;7004;48.206;16.402;2024-03-22T11:04:38;12.20;;;9.47;;
13868;SDS011;7004;48.206;16.402;2024-03-22T11:07:04;12.03;;;9.83;;
13868;SDS011;7004;48.206;16.402;2024-03-22T11:09:30;14.03;;;9.47;;
13868;SDS011;7004;48.206;16.402;2024-03-22T11:11:56;15.57;;;9.97;;
13868;SDS011;7004;48.206;16.402;2024-03-22T11:14:24;13.17;;;9.37;;
13868;SDS011;7004;48.206;16.402;2024-03-22T11:16:50;12.07;;;9.27;;
13868;SDS011;7004;48.206;16.402;2024-03-22T11:19:18;10.23;;;9.07;;
13868;SDS011;7004;48.206;16.402;2024-03-22T11:21:46;12.77;;;9.90;;
13868;SDS011;7004;48.206;16.402;2024-03-22T11:24:12;13.97;;;10.27;;
13868;SDS011;7004;48.206;16.402;2024-03-22T11:26:38;11.07;;;9.17;;
13868;SDS011;7004;48.206;16.402;2024-03-22T11:29:04;11.67;;;8.53;;
13868;SDS011;7004;48.206;16.402;2024-03-22T11:31:30;14.40;;;9.63;;
13868;SDS011;7004;48.206;16.402;2024-03-22T11:33:58;11.37;;;8.87;;
13868;SDS011;7004;48.206;16.402;2024-03-22T11:36:25;11.33;;;8.77;;
13868;SDS011;7004;48.206;16.402;2024-03-22T11:38:51;11.37;;;8.67;;
13868;SDS011;7004;48.206;16.402;2024-03-22T11:41:23;15.07;;;8.70;;
13868;SDS011;7004;48.206;16.402;2024-03-22T11:43:54;11.17;;;8.93;;
13868;SDS011;7004;48.206;16.402;2024-03-22T11:46:21;11.43;;;9.20;;
13868;SDS011;7004;48.206;16.402;2024-03-22T11:48:51;14.77;;;9.30;;
13868;SDS011;7004;48.206;16.402;2024-03-22T11:51:18;11.80;;;8.53;;
13868;SDS011;7004;48.206;16.402;2024-03-22T11:53:51;11.67;;;8.23;;
13868;SDS011;7004;48.206;16.402;2024-03-22T11:56:19;11.03;;;7.77;;
13868;SDS011;7004;48.206;16.402;2024-03-22T11:58:46;10.80;;;7.63;;
13868;SDS011;7004;48.206;16.402;2024-03-22T12:01:16;12.40;;;7.93;;
13868;SDS011;7004;48.206;16.402;2024-03-22T12:03:45;9.30;;;7.73;;
13868;SDS011;7004;48.206;16.402;2024-03-22T12:06:12;10.30;;;7.83;;
13868;SDS011;7004;48.206;16.402;2024-03-22T12:08:40;8.70;;;7.13;;
13868;SDS011;7004;48.206;16.402;2024-03-22T12:11:10;12.43;;;7.87;;
13868;SDS011;7004;48.206;16.402;2024-03-22T12:13:37;9.17;;;8.00;;
13868;SDS011;7004;48.206;16.402;2024-03-22T12:16:04;11.30;;;7.50;;
13868;SDS011;7004;48.206;16.402;2024-03-22T12:18:31;8.83;;;7.03;;
13868;SDS011;7004;48.206;16.402;2024-03-22T12:20:57;13.00;;;8.37;;
13868;SDS011;7004;48.206;16.402;2024-03-22T12:23:23;10.60;;;8.17;;
13868;SDS011;7004;48.206;16.402;2024-03-22T12:25:51;12.47;;;7.97;;
13868;SDS011;7004;48.206;16.402;2024-03-22T12:28:18;8.20;;;7.30;;
13868;SDS011;7004;48.206;16.402;2024-03-22T12:30:46;9.67;;;7.10;;
13868;SDS011;7004;48.206;16.402;2024-03-22T12:33:14;12.30;;;7.40;;
13868;SDS011;7004;48.206;16.402;2024-03-22T12:35:40;10.77;;;7.73;;
13868;SDS011;7004;48.206;16.402;2024-03-22T12:38:07;8.70;;;7.10;;
13868;SDS011;7004;48.206;16.402;2024-03-22T12:40:38;10.20;;;7.30;;
13868;SDS011;7004;48.206;16.402;2024-03-22T12:43:05;11.20;;;7.93;;
13868;SDS011;7004;48.206;16.402;2024-03-22T12:45:34;10.00;;;8.23;;
13868;SDS011;7004;48.206;16.402;2024-03-22T12:48:00;10.10;;;7.23;;
13868;SDS011;7004;48.206;16.402;2024-03-22T12:50:27;9.93;;;7.67;;
13868;SDS011;7004;48.206;16.402;2024-03-22T12:52:53;8.27;;;6.77;;
13868;SDS011;7004;48.206;16.402;2024-03-22T12:55:20;9.83;;;7.80;;
13868;SDS011;7004;48.206;16.402;2024-03-22T12:57:46;10.40;;;7.60;;
13868;SDS011;7004;48.206;16.402;2024-03-22T13:00:12;8.73;;;6.70;;
13868;SDS011;7004;48.206;16.402;2024-03-22T13:02:43;8.67;;;7.73;;
13868;SDS011;7004;48.206;16.402;2024-03-22T13:05:10;11.60;;;7.10;;
13868;SDS011;7004;48.206;16.402;2024-03-22T13:07:36;8.13;;;7.23;;
13868;SDS011;7004;48.206;16.402;2024-03-22T13:10:03;7.90;;;6.47;;
13868;SDS011;7004;48.206;16.402;2024-03-22T13:12:32;10.30;;;7.23;;
13868;SDS011;7004;48.206;16.402;2024-03-22T13:15:02;10.83;;;7.13;;
13868;SDS011;7004;48.206;16.402;2024-03-22T13:17:30;11.83;;;7.43;;
13868;SDS011;7004;48.206;16.402;2024-03-22T13:19:56;7.57;;;6.27;;
13868;SDS011;7004;48.206;16.402;2024-03-22T13:22:23;8.43;;;6.70;;
13868;SDS011;7004;48.206;16.402;2024-03-22T13:24:49;11.83;;;7.87;;
13868;SDS011;7004;48.206;16.402;2024-03-22T13:27:16;9.93;;;7.73;;
13868;SDS011;7004;48.206;16.402;2024-03-22T13:29:43;8.77;;;6.50;;
13868;SDS011;7004;48.206;16.402;2024-03-22T13:32:09;8.50;;;6.50;;
13868;SDS011;7004;48.206;16.402;2024-03-22T13:34:36;9.80;;;7.10;;
13868;SDS011;7004;48.206;16.402;2024-03-22T13:37:03;9.17;;;6.50;;
13868;SDS011;7004;48.206;16.402;2024-03-22T13:39:30;11.03;;;7.20;;
13868;SDS011;7004;48.206;16.402;2024-03-22T13:41:56;8.07;;;6.77;;
13868;SDS011;7004;48.206;16.402;2024-03-22T13:44:23;9.97;;;6.50;;
13868;SDS011;7004;48.206;16.402;2024-03-22T13:46:51;10.70;;;6.70;;
13868;SDS011;7004;48.206;16.402;2024-03-22T13:49:19;8.37;;;6.30;;
13868;SDS011;7004;48.206;16.402;2024-03-22T13:51:49;10.53;;;6.60;;
13868;SDS011;7004;48.206;16.402;2024-03-22T13:54:15;7.83;;;6.37;;
13868;SDS011;7004;48.206;16.402;2024-03-22T13:56:42;9.10;;;6.70;;
13868;SDS011;7004;48.206;16.402;2024-03-22T13:59:08;9.03;;;6.63;;
13868;SDS011;7004;48.206;16.402;2024-03-22T14:01:35;7.07;;;6.33;;
13868;SDS011;7004;48.206;16.402;2024-03-22T14:04:07;7.77;;;6.43;;
13868;SDS011;7004;48.206;16.402;2024-03-22T14:06:36;9.90;;;6.13;;
13868;SDS011;7004;48.206;16.402;2024-03-22T14:09:03;8.30;;;6.20;;
13868;SDS011;7004;48.206;16.402;2024-03-22T14:11:30;8.10;;;6.30;;
13868;SDS011;7004;48.206;16.402;2024-03-22T14:13:57;10.07;;;6.00;;
13868;SDS011;7004;48.206;16.402;2024-03-22T14:16:23;6.80;;;5.77;;
13868;SDS011;7004;48.206;16.402;2024-03-22T14:18:49;7.03;;;5.50;;
13868;SDS011;7004;48.206;16.402;2024-03-22T14:21:15;8.50;;;5.43;;
13868;SDS011;7004;48.206;16.402;2024-03-22T14:23:48;7.37;;;5.23;;
13868;SDS011;7004;48.206;16.402;2024-03-22T14:26:15;7.37;;;5.00;;